Nautic — A8HQ3 — position and weather

sailwx.info

Track history (hours):
 
Tides and Currents Weather Stations Pressure Air Temp Water Temp Dewpoint Dewpoint Depression Visibility Wind Speed Wind Dir Waves Ship Positions

Nautic

Last reported at 2016-Aug-15 19:21 UTC. Time now 2016-Aug-25 18:27 UTC.
Position N 01°57' E 102°16'.
Warning: this ship's position is 9 days out of date.

Length 274 m; draft 8.5 m.

Type: Ship. MMSI: 636012754.

Date/timePositionNaut miles runAvg speedWind from/ knotsBaromVisibWave heightAir tempDewpointWater temp
2016-Aug-15 19:21N 01°57' E 102°16'1012.0
2016-Aug-15 18:33N 01°52' E 102°25'1512.6
2016-Aug-15 17:19N 01°46' E 102°39'1112.5
2016-Aug-15 16:26N 01°40' E 102°49'65 3.4
2016-Aug-14 21:10N 01°10' E 103°46'3 4.1
2016-Aug-14 20:33N 01°12' E 103°48'  
2016-Aug-11 10:33N 01°12' E 103°48'0 0.4
2016-Aug-11 09:33N 01°12' E 103°48'6 5.8
2016-Aug-11 08:33N 01°14' E 103°54'2 2.1
2016-Aug-11 07:29N 01°15' E 103°55'0 0.1
2016-Aug-11 06:33N 01°15' E 103°55'0 0.1
2016-Aug-11 05:33N 01°15' E 103°55'0 0.2
2016-Aug-11 04:33N 01°15' E 103°55'3 2.6
2016-Aug-11 03:33N 01°16' E 103°58'4 3.8
2016-Aug-11 02:33N 01°16' E 104°01'6 6.5
2016-Aug-11 01:33N 01°17' E 104°08'3 0.3
2016-Aug-10 13:29N 01°16' E 104°11'8 8.3
2016-Aug-10 12:32N 01°15' E 104°03'8 8.7
2016-Aug-10 11:34N 01°13' E 103°55'2 0.2
2016-Aug-10 04:23N 01°14' E 103°53'0 0.1
2016-Aug-10 03:23N 01°14' E 103°53'0 0.1
2016-Aug-10 02:32N 01°14' E 103°53'2 2.2
2016-Aug-10 01:33N 01°15' E 103°55'1 1.4
2016-Aug-10 00:33N 01°14' E 103°57'6 5.6
2016-Aug-09 23:34N 01°12' E 103°52'8 8.0
2016-Aug-09 22:33N 01°07' E 103°45'8510.6
2016-Aug-09 14:32N 01°46' E 102°30'1212.3
2016-Aug-09 13:32N 01°52' E 102°18'2411.8
2016-Aug-09 11:30N 02°03' E 101°57'  
Track history (hours):
 
Tides and Currents Weather Stations Pressure Air Temp Water Temp Dewpoint Dewpoint Depression Visibility Wind Speed Wind Dir Waves Ship Positions

Nautic

Last reported at 2016-Aug-15 19:21 UTC. Time now 2016-Aug-25 18:27 UTC.
Position N 01°57' E 102°16'.
Warning: this ship's position is 9 days out of date.

Length 274 m; draft 8.5 m.

Type: Ship. MMSI: 636012754.

Date/timePositionNaut miles runAvg speedWind from/ knotsBaromVisibWave heightAir tempDewpointWater temp
2016-Aug-15 19:21N 01°57' E 102°16'1012.0
2016-Aug-15 18:33N 01°52' E 102°25'1512.6
2016-Aug-15 17:19N 01°46' E 102°39'1112.5
2016-Aug-15 16:26N 01°40' E 102°49'65 3.4
2016-Aug-14 21:10N 01°10' E 103°46'3 4.1
2016-Aug-14 20:33N 01°12' E 103°48'  
2016-Aug-11 10:33N 01°12' E 103°48'0 0.4
2016-Aug-11 09:33N 01°12' E 103°48'6 5.8
2016-Aug-11 08:33N 01°14' E 103°54'2 2.1
2016-Aug-11 07:29N 01°15' E 103°55'0 0.1
2016-Aug-11 06:33N 01°15' E 103°55'0 0.1
2016-Aug-11 05:33N 01°15' E 103°55'0 0.2
2016-Aug-11 04:33N 01°15' E 103°55'3 2.6
2016-Aug-11 03:33N 01°16' E 103°58'4 3.8
2016-Aug-11 02:33N 01°16' E 104°01'6 6.5
2016-Aug-11 01:33N 01°17' E 104°08'3 0.3
2016-Aug-10 13:29N 01°16' E 104°11'8 8.3
2016-Aug-10 12:32N 01°15' E 104°03'8 8.7
2016-Aug-10 11:34N 01°13' E 103°55'2 0.2
2016-Aug-10 04:23N 01°14' E 103°53'0 0.1
2016-Aug-10 03:23N 01°14' E 103°53'0 0.1
2016-Aug-10 02:32N 01°14' E 103°53'2 2.2
2016-Aug-10 01:33N 01°15' E 103°55'1 1.4
2016-Aug-10 00:33N 01°14' E 103°57'6 5.6
2016-Aug-09 23:34N 01°12' E 103°52'8 8.0
2016-Aug-09 22:33N 01°07' E 103°45'8510.6
2016-Aug-09 14:32N 01°46' E 102°30'1212.3
2016-Aug-09 13:32N 01°52' E 102°18'2411.8
2016-Aug-09 11:30N 02°03' E 101°57'  

Dump ship's entire track history